createdAt,value
2018-05-29T00:03:31.792Z,12.63
2018-05-29T00:06:00.619Z,13.43
2018-05-29T00:08:30.108Z,12.90
2018-05-29T00:10:58.611Z,13.23
2018-05-29T00:13:27.073Z,13.47
2018-05-29T00:15:55.495Z,14.10
2018-05-29T00:18:23.945Z,13.03
2018-05-29T00:20:52.425Z,14.13
2018-05-29T00:23:20.828Z,14.53
2018-05-29T00:25:49.581Z,13.83
2018-05-29T00:28:18.059Z,13.93
2018-05-29T00:30:46.545Z,12.70
2018-05-29T00:33:15.159Z,13.80
2018-05-29T00:35:43.627Z,13.93
2018-05-29T00:38:12.106Z,13.50
2018-05-29T00:40:40.555Z,14.60
2018-05-29T00:43:09.786Z,13.97
2018-05-29T00:45:38.240Z,13.33
2018-05-29T00:48:06.612Z,13.33
2018-05-29T00:50:34.878Z,14.53
2018-05-29T00:53:03.183Z,14.17
2018-05-29T00:55:38.109Z,14.10
2018-05-29T00:58:06.392Z,15.10
2018-05-29T01:00:35.465Z,14.73
2018-05-29T01:03:03.775Z,14.33
2018-05-29T01:05:32.072Z,14.83
2018-05-29T01:08:00.364Z,14.60
2018-05-29T01:10:28.643Z,14.33
2018-05-29T01:12:56.946Z,13.10
2018-05-29T01:15:26.763Z,14.83
2018-05-29T01:17:55.051Z,14.53
2018-05-29T01:20:24.125Z,14.40
2018-05-29T01:22:52.400Z,14.73
2018-05-29T01:25:20.695Z,15.30
2018-05-29T01:27:49.743Z,15.90
2018-05-29T01:30:18.026Z,15.60
2018-05-29T01:32:46.327Z,16.93
2018-05-29T01:35:14.720Z,15.70
2018-05-29T01:37:43.007Z,16.07
2018-05-29T01:40:11.303Z,15.67
2018-05-29T01:42:39.607Z,15.20
2018-05-29T01:45:07.929Z,16.37
2018-05-29T01:47:36.288Z,16.20
2018-05-29T01:50:04.678Z,16.17
2018-05-29T01:52:32.968Z,15.57
2018-05-29T01:55:02.032Z,15.90
2018-05-29T01:57:30.348Z,17.30
2018-05-29T01:59:58.711Z,15.07
2018-05-29T02:02:27.777Z,16.60
2018-05-29T02:04:56.069Z,15.63
2018-05-29T02:07:24.352Z,17.97
2018-05-29T02:09:52.733Z,15.37
2018-05-29T02:12:21.111Z,16.83
2018-05-29T02:14:49.385Z,17.23
2018-05-29T02:17:17.671Z,16.83
2018-05-29T02:19:46.038Z,17.93
2018-05-29T02:22:14.412Z,17.70
2018-05-29T02:24:42.799Z,17.20
2018-05-29T02:27:11.162Z,17.73
2018-05-29T02:29:39.440Z,17.27
2018-05-29T02:32:14.574Z,16.33
2018-05-29T02:34:42.860Z,16.57
2018-05-29T02:37:11.244Z,17.40
2018-05-29T02:39:40.340Z,17.20
2018-05-29T02:42:08.713Z,16.27
2018-05-29T02:44:37.090Z,17.23
2018-05-29T02:47:05.480Z,17.20
2018-05-29T02:49:33.760Z,18.40
2018-05-29T02:52:02.839Z,18.60
2018-05-29T02:54:31.128Z,18.73
2018-05-29T02:56:59.500Z,18.67
2018-05-29T02:59:27.804Z,20.00
2018-05-29T03:01:56.843Z,18.27
2018-05-29T03:04:25.170Z,18.63
2018-05-29T03:06:54.228Z,19.90
2018-05-29T03:09:22.507Z,19.77
2018-05-29T03:11:50.819Z,21.30
2018-05-29T03:14:19.873Z,21.60
2018-05-29T03:16:48.149Z,18.57
2018-05-29T03:19:16.452Z,20.97
2018-05-29T03:21:44.736Z,19.57
2018-05-29T03:24:13.807Z,21.13
2018-05-29T03:26:42.092Z,20.60
2018-05-29T03:29:11.877Z,20.10
2018-05-29T03:31:40.183Z,20.40
2018-05-29T03:34:08.470Z,18.70
2018-05-29T03:36:36.768Z,20.90
2018-05-29T03:39:05.103Z,18.93
2018-05-29T03:41:33.615Z,21.17
2018-05-29T03:44:01.895Z,19.00
2018-05-29T03:46:30.963Z,18.90
2018-05-29T03:48:59.339Z,19.90
2018-05-29T03:51:27.666Z,17.93
2018-05-29T03:53:56.712Z,19.27
2018-05-29T03:56:24.984Z,20.20
2018-05-29T03:58:53.361Z,19.97
2018-05-29T04:01:21.664Z,20.63
2018-05-29T04:03:50.932Z,20.47
2018-05-29T04:06:19.219Z,19.40
2018-05-29T04:08:49.003Z,19.30
2018-05-29T04:11:17.418Z,19.17
2018-05-29T04:13:45.668Z,20.10
2018-05-29T04:16:14.061Z,19.03
2018-05-29T04:18:42.339Z,19.47
2018-05-29T04:21:10.712Z,17.00
2018-05-29T04:23:39.010Z,17.60
2018-05-29T04:26:08.066Z,18.43
2018-05-29T04:28:36.357Z,19.20
2018-05-29T04:31:04.645Z,19.00
2018-05-29T04:33:33.011Z,19.23
2018-05-29T04:36:01.392Z,17.97
2018-05-29T04:38:29.699Z,19.23
2018-05-29T04:40:58.761Z,18.50
2018-05-29T04:43:27.158Z,18.20
2018-05-29T04:45:55.435Z,19.20
2018-05-29T04:48:23.805Z,18.73
2018-05-29T04:50:52.176Z,17.40
2018-05-29T04:53:21.250Z,17.93
2018-05-29T04:55:49.531Z,19.00
2018-05-29T04:58:17.819Z,18.83
2018-05-29T05:00:46.207Z,18.60
2018-05-29T05:03:14.503Z,17.07
2018-05-29T05:05:42.989Z,18.60
2018-05-29T05:08:11.348Z,16.50
2018-05-29T05:10:39.661Z,18.30
2018-05-29T05:13:08.011Z,16.07
2018-05-29T05:15:36.293Z,19.70
2018-05-29T05:18:04.657Z,19.87
2018-05-29T05:20:33.039Z,18.40
2018-05-29T05:23:01.344Z,17.87
2018-05-29T05:25:29.640Z,18.97
2018-05-29T05:27:57.940Z,17.60
2018-05-29T05:30:26.227Z,17.90
2018-05-29T05:32:54.610Z,16.93
2018-05-29T05:35:22.938Z,17.20
2018-05-29T05:37:51.959Z,17.03
2018-05-29T05:40:20.368Z,18.40
2018-05-29T05:42:48.746Z,16.50
2018-05-29T05:45:17.119Z,16.80
2018-05-29T05:47:45.420Z,17.23
2018-05-29T05:50:14.496Z,17.10
2018-05-29T05:52:42.851Z,16.97
2018-05-29T05:55:11.152Z,16.17
2018-05-29T05:57:39.493Z,18.20
2018-05-29T06:00:07.802Z,16.97
2018-05-29T06:02:36.178Z,16.77
2018-05-29T06:05:04.458Z,15.83
2018-05-29T06:07:32.839Z,17.03
2018-05-29T06:10:01.214Z,16.10
2018-05-29T06:12:29.595Z,14.97
2018-05-29T06:14:57.874Z,16.33
2018-05-29T06:17:26.176Z,15.90
2018-05-29T06:19:55.216Z,15.10
2018-05-29T06:22:23.525Z,15.10
2018-05-29T06:24:51.819Z,14.63
2018-05-29T06:27:20.868Z,16.07
2018-05-29T06:29:49.172Z,16.33
2018-05-29T06:32:17.544Z,14.87
2018-05-29T06:34:45.848Z,15.40
2018-05-29T06:37:15.033Z,15.13
2018-05-29T06:39:43.291Z,15.70
2018-05-29T06:42:11.588Z,15.37
2018-05-29T06:44:40.647Z,15.30
2018-05-29T06:47:08.986Z,15.43
2018-05-29T06:49:37.314Z,15.27
2018-05-29T06:52:07.935Z,14.40
2018-05-29T06:54:36.216Z,14.00
2018-05-29T06:57:05.651Z,14.07
2018-05-29T06:59:34.689Z,14.73
2018-05-29T07:02:02.993Z,13.00
2018-05-29T07:04:31.288Z,13.17
2018-05-29T07:06:59.644Z,13.37
2018-05-29T07:09:29.571Z,14.30
2018-05-29T07:11:57.856Z,14.40
2018-05-29T07:14:27.091Z,14.27
2018-05-29T07:16:56.143Z,13.93
2018-05-29T07:19:24.421Z,12.90
2018-05-29T07:21:54.230Z,14.37
2018-05-29T07:24:22.570Z,12.93
2018-05-29T07:26:50.865Z,14.73
2018-05-29T07:29:19.160Z,14.10
2018-05-29T07:31:47.547Z,14.73
2018-05-29T07:34:15.928Z,12.90
2018-05-29T07:36:44.232Z,12.83
2018-05-29T07:39:13.301Z,14.00
2018-05-29T07:41:41.600Z,13.50
2018-05-29T07:44:09.888Z,12.43
2018-05-29T07:46:38.224Z,13.90
2018-05-29T07:49:06.612Z,13.27
2018-05-29T07:51:36.104Z,14.37
2018-05-29T07:54:04.486Z,14.43
2018-05-29T07:56:32.748Z,14.50
2018-05-29T07:59:01.031Z,13.47
2018-05-29T08:01:29.312Z,12.87
2018-05-29T08:03:59.107Z,14.93
2018-05-29T08:06:27.418Z,13.17
2018-05-29T08:08:55.696Z,13.13
2018-05-29T08:11:23.993Z,12.87
2018-05-29T08:13:52.382Z,13.20
2018-05-29T08:16:20.908Z,13.43
2018-05-29T08:18:49.300Z,14.50
2018-05-29T08:21:17.675Z,12.80
2018-05-29T08:23:46.749Z,13.40
2018-05-29T08:26:15.016Z,13.97
2018-05-29T08:28:43.327Z,12.10
2018-05-29T08:31:11.612Z,12.43
2018-05-29T08:33:39.983Z,12.70
2018-05-29T08:36:08.249Z,13.67
2018-05-29T08:38:36.559Z,13.03
2018-05-29T08:41:05.600Z,12.60
2018-05-29T08:43:33.916Z,12.63
2018-05-29T08:46:02.179Z,12.30
2018-05-29T08:48:30.444Z,13.77
2018-05-29T08:50:58.738Z,13.67
2018-05-29T08:53:27.831Z,14.20
2018-05-29T08:55:56.231Z,12.93
2018-05-29T08:58:25.281Z,13.80
2018-05-29T09:00:53.586Z,13.50
2018-05-29T09:03:21.851Z,13.30
2018-05-29T09:05:50.232Z,12.73
2018-05-29T09:08:18.564Z,12.87
2018-05-29T09:10:46.863Z,12.20
2018-05-29T09:13:15.160Z,13.80
2018-05-29T09:15:43.413Z,12.90
2018-05-29T09:18:11.814Z,13.10
2018-05-29T09:20:40.965Z,12.87
2018-05-29T09:23:09.411Z,12.80
2018-05-29T09:25:37.675Z,12.20
2018-05-29T09:28:06.252Z,11.20
2018-05-29T09:30:36.058Z,11.23
2018-05-29T09:33:04.356Z,11.40
2018-05-29T09:35:32.719Z,11.80
2018-05-29T09:38:01.877Z,11.40
2018-05-29T09:40:30.151Z,11.97
2018-05-29T09:42:58.467Z,9.60
2018-05-29T09:45:26.864Z,9.30
2018-05-29T09:47:55.131Z,9.60
2018-05-29T09:50:23.408Z,9.80
2018-05-29T09:52:51.739Z,9.00
2018-05-29T09:55:20.070Z,9.80
2018-05-29T09:57:49.132Z,9.73
2018-05-29T10:00:23.255Z,9.70
2018-05-29T10:02:51.644Z,10.03
2018-05-29T10:05:19.927Z,8.50
2018-05-29T10:07:49.218Z,8.87
2018-05-29T10:10:17.519Z,9.03
2018-05-29T10:12:45.868Z,9.30
2018-05-29T10:15:14.191Z,9.00
2018-05-29T10:17:43.228Z,9.70
2018-05-29T10:20:11.499Z,9.10
2018-05-29T10:22:40.620Z,8.20
2018-05-29T10:25:08.983Z,8.80
2018-05-29T10:27:37.272Z,9.60
2018-05-29T10:30:05.548Z,9.33
2018-05-29T10:32:33.944Z,8.30
2018-05-29T10:35:02.424Z,9.00
2018-05-29T10:37:30.788Z,8.27
2018-05-29T10:40:00.700Z,9.47
2018-05-29T10:42:28.992Z,8.27
2018-05-29T10:44:57.239Z,8.80
2018-05-29T10:47:26.680Z,8.60
2018-05-29T10:49:55.126Z,9.57
2018-05-29T10:52:23.396Z,8.70
2018-05-29T10:54:51.747Z,8.03
2018-05-29T10:57:20.019Z,8.80
2018-05-29T10:59:49.051Z,7.40
2018-05-29T11:02:17.393Z,8.80
2018-05-29T11:04:45.796Z,10.20
2018-05-29T11:07:14.194Z,10.43
2018-05-29T11:09:42.457Z,9.43
2018-05-29T11:12:10.787Z,9.10
2018-05-29T11:14:39.846Z,9.20
2018-05-29T11:17:08.144Z,7.73
2018-05-29T11:19:37.203Z,8.60
2018-05-29T11:22:05.512Z,8.80
2018-05-29T11:24:34.584Z,10.00
2018-05-29T11:27:02.864Z,9.30
2018-05-29T11:29:31.135Z,8.43
2018-05-29T11:31:59.405Z,9.30
2018-05-29T11:34:28.501Z,8.33
2018-05-29T11:36:56.767Z,13.63
2018-05-29T11:39:25.068Z,12.70
2018-05-29T11:41:53.364Z,11.40
2018-05-29T11:44:22.417Z,10.40
2018-05-29T11:46:50.738Z,9.63
2018-05-29T11:49:19.788Z,9.13
2018-05-29T11:51:48.083Z,7.77
2018-05-29T11:54:16.467Z,8.37
2018-05-29T11:56:44.736Z,8.50
2018-05-29T11:59:13.870Z,8.13
2018-05-29T12:01:43.021Z,8.70
2018-05-29T12:04:11.192Z,8.00
2018-05-29T12:06:39.476Z,7.40
2018-05-29T12:09:07.748Z,8.87
2018-05-29T12:11:36.043Z,7.73
2018-05-29T12:14:04.408Z,9.07
2018-05-29T12:16:32.667Z,8.20
2018-05-29T12:19:01.061Z,8.20
2018-05-29T12:21:29.331Z,8.40
2018-05-29T12:23:57.626Z,8.10
2018-05-29T12:26:25.911Z,10.37
2018-05-29T12:28:54.197Z,7.47
2018-05-29T12:31:23.249Z,7.70
2018-05-29T12:33:51.523Z,7.13
2018-05-29T12:36:19.796Z,8.07
2018-05-29T12:38:48.192Z,8.43
2018-05-29T12:41:16.464Z,6.90
2018-05-29T12:43:44.768Z,7.33
2018-05-29T12:46:13.167Z,7.67
2018-05-29T12:48:41.384Z,8.20
2018-05-29T12:51:09.890Z,6.90
2018-05-29T12:53:38.176Z,8.07
2018-05-29T12:56:06.448Z,6.60
2018-05-29T12:58:34.720Z,7.00
2018-05-29T13:01:03.003Z,7.90
2018-05-29T13:03:31.280Z,9.00
2018-05-29T13:06:00.355Z,6.87
2018-05-29T13:08:28.749Z,9.27
2018-05-29T13:10:57.025Z,9.47
2018-05-29T13:13:25.311Z,8.47
2018-05-29T13:15:54.394Z,8.17
2018-05-29T13:18:22.680Z,6.73
2018-05-29T13:20:50.954Z,7.53
2018-05-29T13:23:19.211Z,7.70
2018-05-29T13:25:47.591Z,6.47
2018-05-29T13:28:15.855Z,7.17
2018-05-29T13:30:44.130Z,7.03
2018-05-29T13:33:12.432Z,7.23
2018-05-29T13:35:41.528Z,7.07
2018-05-29T13:38:09.924Z,7.97
2018-05-29T13:40:39.124Z,6.90
2018-05-29T13:43:08.183Z,7.13
2018-05-29T13:45:36.461Z,8.10
2018-05-29T13:48:04.719Z,8.10
2018-05-29T13:50:32.988Z,7.57
2018-05-29T13:53:01.403Z,8.90
2018-05-29T13:55:29.664Z,8.63
2018-05-29T13:57:59.076Z,8.27
2018-05-29T14:00:27.470Z,8.47
2018-05-29T14:02:55.732Z,8.13
2018-05-29T14:05:24.117Z,11.90
2018-05-29T14:07:52.605Z,11.50
2018-05-29T14:10:20.967Z,9.00
2018-05-29T14:12:49.227Z,9.00
2018-05-29T14:15:17.539Z,11.37
2018-05-29T14:17:45.809Z,15.73
2018-05-29T14:20:14.088Z,9.60
2018-05-29T14:22:42.369Z,10.50
2018-05-29T14:25:10.669Z,9.90
2018-05-29T14:27:38.973Z,10.23
2018-05-29T14:30:07.280Z,8.83
2018-05-29T14:32:35.573Z,10.53
2018-05-29T14:35:03.854Z,12.03
2018-05-29T14:37:33.647Z,8.03
2018-05-29T14:40:01.942Z,7.70
2018-05-29T14:42:30.199Z,9.23
2018-05-29T14:44:58.580Z,9.27
2018-05-29T14:47:26.893Z,11.23
2018-05-29T14:49:56.113Z,10.50
2018-05-29T14:52:24.419Z,10.60
2018-05-29T14:54:52.715Z,11.30
2018-05-29T14:57:21.009Z,14.00
2018-05-29T14:59:49.324Z,10.80
2018-05-29T15:02:17.626Z,11.40
2018-05-29T15:04:45.896Z,10.70
2018-05-29T15:07:14.195Z,10.37
2018-05-29T15:09:42.490Z,11.17
2018-05-29T15:12:10.827Z,9.63
2018-05-29T15:14:39.128Z,10.80
2018-05-29T15:17:07.432Z,9.67
2018-05-29T15:19:36.473Z,10.90
2018-05-29T15:22:04.776Z,10.30
2018-05-29T15:24:33.059Z,10.40
2018-05-29T15:27:01.523Z,8.97
2018-05-29T15:29:29.808Z,10.57
2018-05-29T15:31:58.210Z,9.90
2018-05-29T15:34:26.467Z,8.70
2018-05-29T15:36:54.741Z,10.43
2018-05-29T15:39:23.053Z,9.60
2018-05-29T15:41:52.107Z,10.07
2018-05-29T15:44:20.488Z,13.63
2018-05-29T15:46:48.763Z,8.47
2018-05-29T15:49:17.048Z,9.47
2018-05-29T15:51:45.349Z,8.93
2018-05-29T15:54:14.387Z,8.30
2018-05-29T15:56:42.662Z,9.03
2018-05-29T15:59:10.961Z,9.17
2018-05-29T16:01:39.223Z,10.43
2018-05-29T16:04:07.509Z,13.70
2018-05-29T16:06:37.324Z,10.37
2018-05-29T16:09:05.712Z,12.33
2018-05-29T16:11:33.994Z,8.43
2018-05-29T16:14:03.074Z,10.17
2018-05-29T16:16:31.367Z,10.40
2018-05-29T16:18:59.731Z,8.80
2018-05-29T16:21:28.012Z,9.17
2018-05-29T16:23:56.338Z,9.23
2018-05-29T16:26:25.391Z,9.43
2018-05-29T16:28:53.656Z,8.90
2018-05-29T16:31:21.939Z,9.30
2018-05-29T16:33:50.225Z,9.13
2018-05-29T16:36:18.499Z,8.60
2018-05-29T16:38:46.810Z,10.00
2018-05-29T16:41:15.856Z,8.90
2018-05-29T16:43:44.235Z,9.10
2018-05-29T16:46:14.097Z,8.60
2018-05-29T16:48:42.341Z,9.57
2018-05-29T16:51:10.714Z,8.63
2018-05-29T16:53:39.056Z,9.73
2018-05-29T16:56:07.400Z,9.47
2018-05-29T16:58:35.737Z,9.47
2018-05-29T17:01:04.057Z,9.50
2018-05-29T17:03:32.360Z,9.00
2018-05-29T17:06:00.745Z,9.33
2018-05-29T17:08:29.071Z,9.70
2018-05-29T17:10:57.383Z,8.70
2018-05-29T17:13:25.711Z,10.83
2018-05-29T17:15:54.040Z,9.60
2018-05-29T17:18:22.357Z,9.77
2018-05-29T17:20:50.698Z,9.43
2018-05-29T17:23:19.023Z,8.90
2018-05-29T17:25:47.553Z,11.30
2018-05-29T17:28:15.914Z,9.70
2018-05-29T17:30:44.302Z,10.03
2018-05-29T17:33:12.584Z,9.70
2018-05-29T17:35:40.911Z,9.47
2018-05-29T17:38:09.229Z,9.43
2018-05-29T17:40:37.501Z,10.47
2018-05-29T17:43:05.869Z,10.17
2018-05-29T17:45:34.964Z,10.57
2018-05-29T17:48:04.028Z,8.87
2018-05-29T17:50:32.320Z,8.90
2018-05-29T17:53:00.593Z,9.30
2018-05-29T17:55:29.054Z,8.83
2018-05-29T17:57:57.353Z,8.50
2018-05-29T18:00:25.615Z,10.07
2018-05-29T18:02:54.737Z,10.17
2018-05-29T18:05:23.778Z,9.80
2018-05-29T18:07:52.073Z,9.97
2018-05-29T18:10:20.376Z,9.40
2018-05-29T18:12:48.754Z,8.63
2018-05-29T18:15:17.796Z,8.90
2018-05-29T18:17:46.101Z,9.07
2018-05-29T18:20:14.395Z,9.77
2018-05-29T18:22:42.667Z,9.43
2018-05-29T18:25:11.039Z,9.80
2018-05-29T18:27:39.296Z,9.17
2018-05-29T18:30:07.699Z,9.90
2018-05-29T18:32:37.509Z,9.30
2018-05-29T18:35:06.587Z,9.30
2018-05-29T18:37:34.900Z,10.57
2018-05-29T18:40:03.947Z,9.10
2018-05-29T18:42:32.269Z,9.10
2018-05-29T18:45:00.569Z,9.77
2018-05-29T18:47:28.821Z,9.83
2018-05-29T18:49:57.188Z,9.40
2018-05-29T18:52:25.475Z,10.30
2018-05-29T18:54:53.833Z,9.17
2018-05-29T18:57:22.115Z,9.57
2018-05-29T18:59:50.425Z,9.63
2018-05-29T19:02:19.457Z,9.30
2018-05-29T19:04:47.728Z,8.77
2018-05-29T19:07:16.018Z,9.53
2018-05-29T19:09:44.314Z,8.97
2018-05-29T19:12:12.612Z,9.17
2018-05-29T19:14:41.689Z,10.23
2018-05-29T19:17:10.342Z,9.47
2018-05-29T19:19:38.643Z,9.57
2018-05-29T19:22:06.946Z,10.43
2018-05-29T19:24:35.257Z,10.20
2018-05-29T19:27:03.592Z,9.40
2018-05-29T19:29:32.660Z,9.10
2018-05-29T19:32:00.947Z,9.63
2018-05-29T19:34:29.234Z,9.43
2018-05-29T19:36:57.535Z,10.37
2018-05-29T19:39:25.900Z,9.80
2018-05-29T19:41:54.184Z,10.67
2018-05-29T19:44:23.364Z,10.60
2018-05-29T19:46:51.741Z,9.27
2018-05-29T19:49:21.164Z,10.50
2018-05-29T19:51:50.234Z,12.73
2018-05-29T19:54:18.542Z,13.30
2018-05-29T19:56:47.585Z,9.80
2018-05-29T19:59:16.028Z,10.37
2018-05-29T20:01:44.656Z,9.73
2018-05-29T20:04:13.155Z,10.00
2018-05-29T20:06:41.900Z,9.93
2018-05-29T20:09:10.589Z,9.77
2018-05-29T20:11:38.833Z,9.43
2018-05-29T20:14:07.179Z,10.20
2018-05-29T20:16:36.430Z,9.27
2018-05-29T20:19:04.755Z,9.57
2018-05-29T20:21:33.046Z,9.60
2018-05-29T20:24:01.384Z,8.83
2018-05-29T20:26:29.748Z,9.87
2018-05-29T20:28:58.011Z,9.40
2018-05-29T20:31:26.633Z,9.47
2018-05-29T20:33:54.952Z,9.70
2018-05-29T20:36:23.933Z,10.10
2018-05-29T20:38:52.299Z,11.10
2018-05-29T20:41:20.591Z,10.30
2018-05-29T20:43:49.691Z,9.17
2018-05-29T20:46:17.947Z,13.53
2018-05-29T20:48:46.241Z,9.33
2018-05-29T20:51:14.592Z,9.27
2018-05-29T20:53:43.684Z,9.00
2018-05-29T20:56:11.986Z,9.63
2018-05-29T20:58:40.346Z,8.43
2018-05-29T21:01:08.663Z,9.30
2018-05-29T21:03:36.903Z,8.70
2018-05-29T21:06:05.189Z,8.67
2018-05-29T21:08:33.467Z,9.20
2018-05-29T21:11:01.759Z,7.60
2018-05-29T21:13:30.836Z,7.60
2018-05-29T21:15:59.125Z,8.80
2018-05-29T21:18:27.392Z,8.93
2018-05-29T21:20:56.471Z,9.30
2018-05-29T21:23:24.839Z,10.30
2018-05-29T21:25:53.135Z,9.93
2018-05-29T21:28:21.482Z,10.33
2018-05-29T21:30:50.020Z,10.40
2018-05-29T21:33:19.182Z,11.20
2018-05-29T21:35:47.564Z,9.40
2018-05-29T21:38:15.818Z,9.83
2018-05-29T21:40:44.433Z,9.77
2018-05-29T21:43:12.719Z,10.83
2018-05-29T21:45:42.640Z,10.87
2018-05-29T21:48:10.975Z,9.90
2018-05-29T21:50:39.252Z,11.20
2018-05-29T21:53:07.511Z,12.70
2018-05-29T21:55:35.820Z,13.37
2018-05-29T21:58:04.201Z,13.83
2018-05-29T22:00:32.543Z,14.87
2018-05-29T22:03:00.792Z,12.03
2018-05-29T22:05:29.137Z,11.27
2018-05-29T22:07:57.421Z,11.70
2018-05-29T22:10:26.503Z,9.97
2018-05-29T22:12:54.797Z,11.90
2018-05-29T22:15:23.087Z,10.13
2018-05-29T22:17:52.120Z,9.43
2018-05-29T22:20:20.431Z,9.17
2018-05-29T22:22:48.696Z,8.57
2018-05-29T22:25:16.953Z,9.33
2018-05-29T22:27:45.254Z,8.63
2018-05-29T22:30:13.523Z,12.30
2018-05-29T22:32:41.819Z,14.30
2018-05-29T22:35:10.897Z,15.17
2018-05-29T22:37:39.184Z,15.90
2018-05-29T22:40:07.523Z,14.73
2018-05-29T22:42:35.859Z,16.90
2018-05-29T22:45:05.028Z,16.50
2018-05-29T22:47:33.303Z,15.73
2018-05-29T22:50:01.597Z,18.40
2018-05-29T22:52:29.876Z,18.43
2018-05-29T22:54:58.205Z,18.17
2018-05-29T22:57:26.464Z,20.10
2018-05-29T22:59:54.792Z,20.50
2018-05-29T23:02:23.063Z,19.70
2018-05-29T23:04:51.337Z,19.97
2018-05-29T23:07:19.716Z,19.47
2018-05-29T23:09:47.985Z,19.13
2018-05-29T23:12:16.376Z,16.40
2018-05-29T23:14:44.664Z,15.77
2018-05-29T23:17:14.472Z,18.07
2018-05-29T23:19:43.574Z,16.80
2018-05-29T23:22:11.856Z,16.83
2018-05-29T23:24:40.220Z,15.87
2018-05-29T23:27:08.502Z,16.73
2018-05-29T23:29:36.863Z,15.00
2018-05-29T23:32:05.981Z,16.90
2018-05-29T23:34:34.299Z,14.13
2018-05-29T23:37:02.656Z,17.30
2018-05-29T23:39:30.979Z,16.80
2018-05-29T23:41:59.298Z,16.50
2018-05-29T23:44:27.700Z,14.80
2018-05-29T23:46:56.768Z,14.80
2018-05-29T23:49:25.881Z,14.80
2018-05-29T23:51:54.969Z,16.03
2018-05-29T23:54:24.084Z,13.33
2018-05-29T23:56:52.402Z,14.30
2018-05-29T23:59:20.749Z,14.47
